sensor_id;sensor_type;location;lat;lon;timestamp;P1;durP1;ratioP1;P2;durP2;ratioP2
8407;SDS011;4241;48.452;9.216;2022-09-27T00:02:00;438.23;;;136.57;;
8407;SDS011;4241;48.452;9.216;2022-09-27T00:04:27;436.27;;;135.20;;
8407;SDS011;4241;48.452;9.216;2022-09-27T00:06:54;435.40;;;135.10;;
8407;SDS011;4241;48.452;9.216;2022-09-27T00:09:20;437.80;;;137.43;;
8407;SDS011;4241;48.452;9.216;2022-09-27T00:11:47;434.73;;;135.73;;
8407;SDS011;4241;48.452;9.216;2022-09-27T00:14:15;433.67;;;133.23;;
8407;SDS011;4241;48.452;9.216;2022-09-27T00:16:44;433.33;;;133.77;;
8407;SDS011;4241;48.452;9.216;2022-09-27T00:19:12;436.73;;;136.17;;
8407;SDS011;4241;48.452;9.216;2022-09-27T00:21:40;434.37;;;134.20;;
8407;SDS011;4241;48.452;9.216;2022-09-27T00:24:08;432.60;;;136.13;;
8407;SDS011;4241;48.452;9.216;2022-09-27T00:26:37;433.10;;;135.27;;
8407;SDS011;4241;48.452;9.216;2022-09-27T00:29:04;437.97;;;136.17;;
8407;SDS011;4241;48.452;9.216;2022-09-27T00:31:31;439.87;;;138.43;;
8407;SDS011;4241;48.452;9.216;2022-09-27T00:34:00;436.87;;;136.57;;
8407;SDS011;4241;48.452;9.216;2022-09-27T00:36:27;433.53;;;132.50;;
8407;SDS011;4241;48.452;9.216;2022-09-27T00:38:55;436.97;;;135.57;;
8407;SDS011;4241;48.452;9.216;2022-09-27T00:41:24;434.80;;;135.57;;
8407;SDS011;4241;48.452;9.216;2022-09-27T00:43:53;437.43;;;136.00;;
8407;SDS011;4241;48.452;9.216;2022-09-27T00:46:22;434.47;;;134.50;;
8407;SDS011;4241;48.452;9.216;2022-09-27T00:49:00;435.80;;;136.10;;
8407;SDS011;4241;48.452;9.216;2022-09-27T00:51:32;435.27;;;135.20;;
8407;SDS011;4241;48.452;9.216;2022-09-27T00:54:04;433.97;;;132.27;;
8407;SDS011;4241;48.452;9.216;2022-09-27T00:56:32;436.83;;;134.97;;
8407;SDS011;4241;48.452;9.216;2022-09-27T00:59:02;436.27;;;135.23;;
8407;SDS011;4241;48.452;9.216;2022-09-27T01:01:34;435.57;;;133.53;;
8407;SDS011;4241;48.452;9.216;2022-09-27T01:04:02;438.80;;;137.13;;
8407;SDS011;4241;48.452;9.216;2022-09-27T01:06:32;436.93;;;135.07;;
8407;SDS011;4241;48.452;9.216;2022-09-27T01:08:59;437.17;;;135.97;;
8407;SDS011;4241;48.452;9.216;2022-09-27T01:11:30;436.90;;;134.43;;
8407;SDS011;4241;48.452;9.216;2022-09-27T01:14:18;436.60;;;135.47;;
8407;SDS011;4241;48.452;9.216;2022-09-27T01:16:59;434.50;;;132.90;;
8407;SDS011;4241;48.452;9.216;2022-09-27T01:19:43;436.40;;;134.70;;
8407;SDS011;4241;48.452;9.216;2022-09-27T01:22:23;443.83;;;142.53;;
8407;SDS011;4241;48.452;9.216;2022-09-27T01:24:55;437.33;;;135.70;;
8407;SDS011;4241;48.452;9.216;2022-09-27T01:30:41;435.33;;;133.90;;
8407;SDS011;4241;48.452;9.216;2022-09-27T01:33:14;435.60;;;133.73;;
8407;SDS011;4241;48.452;9.216;2022-09-27T01:35:56;436.90;;;133.57;;
8407;SDS011;4241;48.452;9.216;2022-09-27T01:38:33;436.93;;;134.73;;
8407;SDS011;4241;48.452;9.216;2022-09-27T01:41:08;439.13;;;136.47;;
8407;SDS011;4241;48.452;9.216;2022-09-27T01:43:45;437.17;;;134.90;;
8407;SDS011;4241;48.452;9.216;2022-09-27T01:46:20;437.37;;;136.53;;
8407;SDS011;4241;48.452;9.216;2022-09-27T01:48:50;436.23;;;135.17;;
8407;SDS011;4241;48.452;9.216;2022-09-27T01:51:20;435.90;;;134.13;;
8407;SDS011;4241;48.452;9.216;2022-09-27T01:53:53;435.87;;;135.63;;
8407;SDS011;4241;48.452;9.216;2022-09-27T01:56:25;438.00;;;135.60;;
8407;SDS011;4241;48.452;9.216;2022-09-27T01:58:58;438.73;;;136.13;;
8407;SDS011;4241;48.452;9.216;2022-09-27T02:01:31;442.50;;;139.47;;
8407;SDS011;4241;48.452;9.216;2022-09-27T02:04:01;438.73;;;136.77;;
8407;SDS011;4241;48.452;9.216;2022-09-27T02:06:32;437.23;;;134.63;;
8407;SDS011;4241;48.452;9.216;2022-09-27T02:09:04;438.93;;;136.47;;
8407;SDS011;4241;48.452;9.216;2022-09-27T02:11:34;435.90;;;134.20;;
8407;SDS011;4241;48.452;9.216;2022-09-27T02:14:05;437.80;;;134.63;;
8407;SDS011;4241;48.452;9.216;2022-09-27T02:16:41;438.03;;;134.77;;
8407;SDS011;4241;48.452;9.216;2022-09-27T02:19:17;435.83;;;132.33;;
8407;SDS011;4241;48.452;9.216;2022-09-27T02:21:54;438.73;;;134.43;;
8407;SDS011;4241;48.452;9.216;2022-09-27T02:24:29;441.27;;;136.87;;
8407;SDS011;4241;48.452;9.216;2022-09-27T02:27:04;439.07;;;134.97;;
8407;SDS011;4241;48.452;9.216;2022-09-27T02:29:38;439.43;;;135.70;;
8407;SDS011;4241;48.452;9.216;2022-09-27T02:32:12;437.80;;;134.00;;
8407;SDS011;4241;48.452;9.216;2022-09-27T02:34:39;439.13;;;135.00;;
8407;SDS011;4241;48.452;9.216;2022-09-27T02:37:08;437.13;;;133.77;;
8407;SDS011;4241;48.452;9.216;2022-09-27T02:39:35;438.53;;;134.77;;
8407;SDS011;4241;48.452;9.216;2022-09-27T02:42:02;440.13;;;136.90;;
8407;SDS011;4241;48.452;9.216;2022-09-27T02:44:30;442.27;;;137.73;;
8407;SDS011;4241;48.452;9.216;2022-09-27T02:47:02;436.97;;;133.47;;
8407;SDS011;4241;48.452;9.216;2022-09-27T02:49:53;439.43;;;135.63;;
8407;SDS011;4241;48.452;9.216;2022-09-27T02:52:28;444.87;;;141.63;;
8407;SDS011;4241;48.452;9.216;2022-09-27T02:55:09;436.03;;;132.63;;
8407;SDS011;4241;48.452;9.216;2022-09-27T02:57:41;435.73;;;133.40;;
8407;SDS011;4241;48.452;9.216;2022-09-27T03:00:20;437.13;;;135.20;;
8407;SDS011;4241;48.452;9.216;2022-09-27T03:02:52;441.47;;;138.23;;
8407;SDS011;4241;48.452;9.216;2022-09-27T03:05:26;437.20;;;134.60;;
8407;SDS011;4241;48.452;9.216;2022-09-27T03:07:55;438.70;;;135.13;;
8407;SDS011;4241;48.452;9.216;2022-09-27T03:10:24;434.30;;;133.63;;
8407;SDS011;4241;48.452;9.216;2022-09-27T03:12:52;438.07;;;136.87;;
8407;SDS011;4241;48.452;9.216;2022-09-27T03:15:19;436.00;;;135.70;;
8407;SDS011;4241;48.452;9.216;2022-09-27T03:17:46;432.37;;;134.87;;
8407;SDS011;4241;48.452;9.216;2022-09-27T03:20:13;429.93;;;134.87;;
8407;SDS011;4241;48.452;9.216;2022-09-27T03:22:41;429.90;;;134.43;;
8407;SDS011;4241;48.452;9.216;2022-09-27T03:25:08;432.20;;;134.73;;
8407;SDS011;4241;48.452;9.216;2022-09-27T03:27:36;434.30;;;134.50;;
8407;SDS011;4241;48.452;9.216;2022-09-27T03:30:03;434.03;;;134.93;;
8407;SDS011;4241;48.452;9.216;2022-09-27T03:32:31;438.00;;;137.60;;
8407;SDS011;4241;48.452;9.216;2022-09-27T03:34:58;438.67;;;136.90;;
8407;SDS011;4241;48.452;9.216;2022-09-27T03:37:25;433.47;;;132.13;;
8407;SDS011;4241;48.452;9.216;2022-09-27T03:39:54;435.53;;;134.70;;
8407;SDS011;4241;48.452;9.216;2022-09-27T03:42:21;443.17;;;140.83;;
8407;SDS011;4241;48.452;9.216;2022-09-27T03:44:48;440.33;;;136.20;;
8407;SDS011;4241;48.452;9.216;2022-09-27T03:47:15;433.90;;;131.17;;
8407;SDS011;4241;48.452;9.216;2022-09-27T03:49:42;435.00;;;131.03;;
8407;SDS011;4241;48.452;9.216;2022-09-27T03:52:09;435.63;;;131.07;;
8407;SDS011;4241;48.452;9.216;2022-09-27T03:54:36;439.60;;;134.40;;
8407;SDS011;4241;48.452;9.216;2022-09-27T03:57:04;436.73;;;132.10;;
8407;SDS011;4241;48.452;9.216;2022-09-27T03:59:31;437.03;;;132.67;;
8407;SDS011;4241;48.452;9.216;2022-09-27T04:01:58;434.50;;;131.17;;
8407;SDS011;4241;48.452;9.216;2022-09-27T04:04:25;434.47;;;130.33;;
8407;SDS011;4241;48.452;9.216;2022-09-27T04:06:52;436.80;;;132.53;;
8407;SDS011;4241;48.452;9.216;2022-09-27T04:09:18;438.97;;;135.70;;
8407;SDS011;4241;48.452;9.216;2022-09-27T04:11:45;435.33;;;131.07;;
8407;SDS011;4241;48.452;9.216;2022-09-27T04:14:14;437.37;;;132.93;;
8407;SDS011;4241;48.452;9.216;2022-09-27T04:16:41;435.83;;;131.97;;
8407;SDS011;4241;48.452;9.216;2022-09-27T04:19:08;435.80;;;131.30;;
8407;SDS011;4241;48.452;9.216;2022-09-27T04:21:35;434.83;;;129.97;;
8407;SDS011;4241;48.452;9.216;2022-09-27T04:24:02;441.13;;;136.37;;
8407;SDS011;4241;48.452;9.216;2022-09-27T04:26:30;434.57;;;131.33;;
8407;SDS011;4241;48.452;9.216;2022-09-27T04:28:57;436.87;;;133.03;;
8407;SDS011;4241;48.452;9.216;2022-09-27T04:31:25;435.17;;;131.40;;
8407;SDS011;4241;48.452;9.216;2022-09-27T04:33:53;436.47;;;132.33;;
8407;SDS011;4241;48.452;9.216;2022-09-27T04:36:21;435.60;;;132.07;;
8407;SDS011;4241;48.452;9.216;2022-09-27T04:38:50;433.53;;;130.67;;
8407;SDS011;4241;48.452;9.216;2022-09-27T04:41:17;433.50;;;128.97;;
8407;SDS011;4241;48.452;9.216;2022-09-27T04:43:45;434.23;;;130.20;;
8407;SDS011;4241;48.452;9.216;2022-09-27T04:46:12;435.93;;;131.00;;
8407;SDS011;4241;48.452;9.216;2022-09-27T04:48:40;434.30;;;129.77;;
8407;SDS011;4241;48.452;9.216;2022-09-27T04:51:08;435.83;;;131.07;;
8407;SDS011;4241;48.452;9.216;2022-09-27T04:53:35;433.37;;;129.53;;
8407;SDS011;4241;48.452;9.216;2022-09-27T04:56:02;434.30;;;129.77;;
8407;SDS011;4241;48.452;9.216;2022-09-27T04:58:31;434.27;;;130.17;;
8407;SDS011;4241;48.452;9.216;2022-09-27T05:00:58;434.07;;;130.10;;
8407;SDS011;4241;48.452;9.216;2022-09-27T05:03:27;433.73;;;129.50;;
8407;SDS011;4241;48.452;9.216;2022-09-27T05:05:55;436.33;;;131.80;;
8407;SDS011;4241;48.452;9.216;2022-09-27T05:08:22;437.27;;;133.10;;
8407;SDS011;4241;48.452;9.216;2022-09-27T05:10:50;442.20;;;135.87;;
8407;SDS011;4241;48.452;9.216;2022-09-27T05:13:16;440.17;;;134.77;;
8407;SDS011;4241;48.452;9.216;2022-09-27T05:15:43;435.87;;;131.13;;
8407;SDS011;4241;48.452;9.216;2022-09-27T05:18:10;432.60;;;130.53;;
8407;SDS011;4241;48.452;9.216;2022-09-27T05:20:37;433.10;;;129.63;;
8407;SDS011;4241;48.452;9.216;2022-09-27T05:23:06;438.83;;;134.00;;
8407;SDS011;4241;48.452;9.216;2022-09-27T05:25:33;433.60;;;130.03;;
8407;SDS011;4241;48.452;9.216;2022-09-27T05:28:00;431.73;;;128.97;;
8407;SDS011;4241;48.452;9.216;2022-09-27T05:30:27;432.37;;;128.97;;
8407;SDS011;4241;48.452;9.216;2022-09-27T05:32:54;436.80;;;132.10;;
8407;SDS011;4241;48.452;9.216;2022-09-27T05:35:21;432.73;;;129.17;;
8407;SDS011;4241;48.452;9.216;2022-09-27T05:37:51;432.33;;;128.23;;
8407;SDS011;4241;48.452;9.216;2022-09-27T05:40:20;432.80;;;129.57;;
8407;SDS011;4241;48.452;9.216;2022-09-27T05:42:48;431.30;;;127.80;;
8407;SDS011;4241;48.452;9.216;2022-09-27T05:45:16;433.33;;;129.73;;
8407;SDS011;4241;48.452;9.216;2022-09-27T05:47:42;431.67;;;128.83;;
8407;SDS011;4241;48.452;9.216;2022-09-27T05:50:17;429.57;;;127.00;;
8407;SDS011;4241;48.452;9.216;2022-09-27T05:52:44;430.77;;;127.63;;
8407;SDS011;4241;48.452;9.216;2022-09-27T05:55:10;430.30;;;126.83;;
8407;SDS011;4241;48.452;9.216;2022-09-27T05:57:39;432.07;;;128.73;;
8407;SDS011;4241;48.452;9.216;2022-09-27T06:00:06;430.40;;;128.13;;
8407;SDS011;4241;48.452;9.216;2022-09-27T06:02:34;432.77;;;130.07;;
8407;SDS011;4241;48.452;9.216;2022-09-27T06:05:01;434.10;;;130.13;;
8407;SDS011;4241;48.452;9.216;2022-09-27T06:07:29;429.97;;;128.07;;
8407;SDS011;4241;48.452;9.216;2022-09-27T06:09:56;429.40;;;127.53;;
8407;SDS011;4241;48.452;9.216;2022-09-27T06:12:23;439.50;;;136.53;;
8407;SDS011;4241;48.452;9.216;2022-09-27T06:14:51;430.17;;;128.40;;
8407;SDS011;4241;48.452;9.216;2022-09-27T06:17:18;435.93;;;132.17;;
8407;SDS011;4241;48.452;9.216;2022-09-27T06:19:45;432.20;;;129.60;;
8407;SDS011;4241;48.452;9.216;2022-09-27T06:22:13;430.97;;;128.33;;
8407;SDS011;4241;48.452;9.216;2022-09-27T06:24:40;429.57;;;128.13;;
8407;SDS011;4241;48.452;9.216;2022-09-27T06:27:07;429.17;;;128.10;;
8407;SDS011;4241;48.452;9.216;2022-09-27T06:29:34;429.07;;;126.33;;
8407;SDS011;4241;48.452;9.216;2022-09-27T06:32:04;435.20;;;132.33;;
8407;SDS011;4241;48.452;9.216;2022-09-27T06:34:31;431.17;;;128.17;;
8407;SDS011;4241;48.452;9.216;2022-09-27T06:36:57;430.37;;;128.00;;
8407;SDS011;4241;48.452;9.216;2022-09-27T06:39:24;431.00;;;127.70;;
8407;SDS011;4241;48.452;9.216;2022-09-27T06:41:52;433.93;;;129.87;;
8407;SDS011;4241;48.452;9.216;2022-09-27T06:44:22;430.73;;;127.17;;
8407;SDS011;4241;48.452;9.216;2022-09-27T06:46:49;431.33;;;127.23;;
8407;SDS011;4241;48.452;9.216;2022-09-27T06:49:18;431.23;;;128.00;;
8407;SDS011;4241;48.452;9.216;2022-09-27T06:51:46;433.50;;;128.83;;
8407;SDS011;4241;48.452;9.216;2022-09-27T06:54:13;432.23;;;127.47;;
8407;SDS011;4241;48.452;9.216;2022-09-27T06:56:40;433.27;;;129.10;;
8407;SDS011;4241;48.452;9.216;2022-09-27T06:59:07;432.20;;;128.97;;
8407;SDS011;4241;48.452;9.216;2022-09-27T07:01:51;430.33;;;126.23;;
8407;SDS011;4241;48.452;9.216;2022-09-27T07:04:19;429.93;;;126.80;;
8407;SDS011;4241;48.452;9.216;2022-09-27T07:06:47;434.10;;;129.60;;
8407;SDS011;4241;48.452;9.216;2022-09-27T07:09:13;433.17;;;129.43;;
8407;SDS011;4241;48.452;9.216;2022-09-27T07:11:40;431.20;;;127.80;;
8407;SDS011;4241;48.452;9.216;2022-09-27T07:14:10;431.97;;;128.57;;
8407;SDS011;4241;48.452;9.216;2022-09-27T07:16:36;431.57;;;128.30;;
8407;SDS011;4241;48.452;9.216;2022-09-27T07:19:03;433.60;;;129.47;;
8407;SDS011;4241;48.452;9.216;2022-09-27T07:21:33;431.67;;;128.23;;
8407;SDS011;4241;48.452;9.216;2022-09-27T07:24:00;431.77;;;128.53;;
8407;SDS011;4241;48.452;9.216;2022-09-27T07:26:27;429.53;;;126.33;;
8407;SDS011;4241;48.452;9.216;2022-09-27T07:28:54;431.57;;;127.30;;
8407;SDS011;4241;48.452;9.216;2022-09-27T07:31:21;432.90;;;129.37;;
8407;SDS011;4241;48.452;9.216;2022-09-27T07:33:48;431.67;;;127.70;;
8407;SDS011;4241;48.452;9.216;2022-09-27T07:36:16;430.70;;;126.80;;
8407;SDS011;4241;48.452;9.216;2022-09-27T07:38:45;433.47;;;128.97;;
8407;SDS011;4241;48.452;9.216;2022-09-27T07:41:12;430.73;;;127.90;;
8407;SDS011;4241;48.452;9.216;2022-09-27T07:43:40;430.00;;;126.67;;
8407;SDS011;4241;48.452;9.216;2022-09-27T07:46:08;431.63;;;128.03;;
8407;SDS011;4241;48.452;9.216;2022-09-27T07:48:36;432.43;;;128.07;;
8407;SDS011;4241;48.452;9.216;2022-09-27T07:51:02;431.57;;;127.70;;
8407;SDS011;4241;48.452;9.216;2022-09-27T07:53:31;432.67;;;128.07;;
8407;SDS011;4241;48.452;9.216;2022-09-27T07:56:00;432.07;;;128.40;;
8407;SDS011;4241;48.452;9.216;2022-09-27T07:58:27;433.90;;;129.77;;
8407;SDS011;4241;48.452;9.216;2022-09-27T08:00:57;434.03;;;129.80;;
8407;SDS011;4241;48.452;9.216;2022-09-27T08:03:24;434.13;;;130.13;;
8407;SDS011;4241;48.452;9.216;2022-09-27T08:05:51;435.60;;;130.60;;
8407;SDS011;4241;48.452;9.216;2022-09-27T08:08:18;437.93;;;133.80;;
8407;SDS011;4241;48.452;9.216;2022-09-27T08:10:45;436.60;;;131.97;;
8407;SDS011;4241;48.452;9.216;2022-09-27T08:13:14;437.63;;;132.47;;
8407;SDS011;4241;48.452;9.216;2022-09-27T08:15:42;436.03;;;131.17;;
8407;SDS011;4241;48.452;9.216;2022-09-27T08:18:08;437.30;;;132.77;;
8407;SDS011;4241;48.452;9.216;2022-09-27T08:20:35;438.70;;;134.23;;
8407;SDS011;4241;48.452;9.216;2022-09-27T08:23:04;438.90;;;134.57;;
8407;SDS011;4241;48.452;9.216;2022-09-27T08:25:31;438.27;;;133.60;;
8407;SDS011;4241;48.452;9.216;2022-09-27T08:27:58;443.00;;;138.23;;
8407;SDS011;4241;48.452;9.216;2022-09-27T08:30:27;438.50;;;134.23;;
8407;SDS011;4241;48.452;9.216;2022-09-27T08:32:56;439.63;;;134.70;;
8407;SDS011;4241;48.452;9.216;2022-09-27T08:35:24;438.67;;;133.97;;
8407;SDS011;4241;48.452;9.216;2022-09-27T08:37:53;445.67;;;140.47;;
8407;SDS011;4241;48.452;9.216;2022-09-27T08:40:22;439.33;;;135.03;;
8407;SDS011;4241;48.452;9.216;2022-09-27T08:42:55;441.53;;;136.63;;
8407;SDS011;4241;48.452;9.216;2022-09-27T08:45:31;440.40;;;136.50;;
8407;SDS011;4241;48.452;9.216;2022-09-27T08:48:04;446.07;;;141.40;;
8407;SDS011;4241;48.452;9.216;2022-09-27T08:50:31;443.30;;;139.33;;
8407;SDS011;4241;48.452;9.216;2022-09-27T08:53:01;442.93;;;138.23;;
8407;SDS011;4241;48.452;9.216;2022-09-27T08:55:34;442.57;;;138.20;;
8407;SDS011;4241;48.452;9.216;2022-09-27T08:58:03;446.43;;;142.37;;
8407;SDS011;4241;48.452;9.216;2022-09-27T09:00:39;441.47;;;137.77;;
8407;SDS011;4241;48.452;9.216;2022-09-27T09:03:08;445.67;;;142.10;;
8407;SDS011;4241;48.452;9.216;2022-09-27T09:05:45;444.43;;;140.03;;
8407;SDS011;4241;48.452;9.216;2022-09-27T09:08:24;443.10;;;139.80;;
8407;SDS011;4241;48.452;9.216;2022-09-27T09:11:02;440.50;;;136.40;;
8407;SDS011;4241;48.452;9.216;2022-09-27T09:13:58;441.53;;;137.20;;
8407;SDS011;4241;48.452;9.216;2022-09-27T09:16:48;438.00;;;134.53;;
8407;SDS011;4241;48.452;9.216;2022-09-27T09:19:30;439.50;;;134.43;;
8407;SDS011;4241;48.452;9.216;2022-09-27T09:22:21;440.63;;;135.73;;
8407;SDS011;4241;48.452;9.216;2022-09-27T09:25:12;436.03;;;131.37;;
8407;SDS011;4241;48.452;9.216;2022-09-27T09:27:49;436.73;;;131.27;;
8407;SDS011;4241;48.452;9.216;2022-09-27T09:30:28;435.97;;;130.53;;
8407;SDS011;4241;48.452;9.216;2022-09-27T09:33:10;433.90;;;129.07;;
8407;SDS011;4241;48.452;9.216;2022-09-27T09:35:48;434.87;;;129.87;;
8407;SDS011;4241;48.452;9.216;2022-09-27T09:38:20;435.87;;;131.17;;
8407;SDS011;4241;48.452;9.216;2022-09-27T09:40:54;436.00;;;131.07;;
8407;SDS011;4241;48.452;9.216;2022-09-27T09:43:28;435.03;;;130.67;;
8407;SDS011;4241;48.452;9.216;2022-09-27T09:45:59;434.30;;;129.73;;
8407;SDS011;4241;48.452;9.216;2022-09-27T09:48:36;436.97;;;132.77;;
8407;SDS011;4241;48.452;9.216;2022-09-27T09:51:10;434.93;;;131.50;;
8407;SDS011;4241;48.452;9.216;2022-09-27T09:53:43;436.00;;;131.73;;
8407;SDS011;4241;48.452;9.216;2022-09-27T09:56:16;437.93;;;133.43;;
8407;SDS011;4241;48.452;9.216;2022-09-27T09:58:48;436.20;;;131.53;;
8407;SDS011;4241;48.452;9.216;2022-09-27T10:01:20;440.20;;;134.83;;
8407;SDS011;4241;48.452;9.216;2022-09-27T10:03:51;436.00;;;131.67;;
8407;SDS011;4241;48.452;9.216;2022-09-27T10:06:19;440.00;;;135.17;;
8407;SDS011;4241;48.452;9.216;2022-09-27T10:08:46;443.03;;;137.53;;
8407;SDS011;4241;48.452;9.216;2022-09-27T10:11:19;439.30;;;135.13;;
8407;SDS011;4241;48.452;9.216;2022-09-27T10:13:48;444.33;;;139.20;;
8407;SDS011;4241;48.452;9.216;2022-09-27T10:16:16;447.73;;;142.03;;
8407;SDS011;4241;48.452;9.216;2022-09-27T10:18:44;444.73;;;140.10;;
8407;SDS011;4241;48.452;9.216;2022-09-27T10:21:17;445.97;;;141.20;;
8407;SDS011;4241;48.452;9.216;2022-09-27T10:26:45;445.13;;;141.27;;
8407;SDS011;4241;48.452;9.216;2022-09-27T10:29:15;444.77;;;141.43;;
8407;SDS011;4241;48.452;9.216;2022-09-27T10:31:55;447.10;;;143.40;;
8407;SDS011;4241;48.452;9.216;2022-09-27T10:34:24;446.93;;;142.93;;
8407;SDS011;4241;48.452;9.216;2022-09-27T10:37:03;450.00;;;146.33;;
8407;SDS011;4241;48.452;9.216;2022-09-27T10:39:41;447.53;;;143.87;;
8407;SDS011;4241;48.452;9.216;2022-09-27T10:42:19;450.30;;;147.30;;
8407;SDS011;4241;48.452;9.216;2022-09-27T10:44:47;450.40;;;147.17;;
8407;SDS011;4241;48.452;9.216;2022-09-27T10:47:16;453.43;;;149.90;;
8407;SDS011;4241;48.452;9.216;2022-09-27T10:49:47;449.83;;;146.93;;
8407;SDS011;4241;48.452;9.216;2022-09-27T10:52:18;449.77;;;146.07;;
8407;SDS011;4241;48.452;9.216;2022-09-27T10:54:52;449.10;;;146.33;;
8407;SDS011;4241;48.452;9.216;2022-09-27T10:57:21;452.63;;;151.13;;
8407;SDS011;4241;48.452;9.216;2022-09-27T10:59:51;449.23;;;146.27;;
8407;SDS011;4241;48.452;9.216;2022-09-27T11:02:20;455.37;;;152.57;;
8407;SDS011;4241;48.452;9.216;2022-09-27T11:05:03;451.07;;;149.17;;
8407;SDS011;4241;48.452;9.216;2022-09-27T11:07:36;448.00;;;146.27;;
8407;SDS011;4241;48.452;9.216;2022-09-27T11:10:20;449.60;;;147.50;;
8407;SDS011;4241;48.452;9.216;2022-09-27T11:13:07;451.70;;;149.20;;
8407;SDS011;4241;48.452;9.216;2022-09-27T11:15:41;457.63;;;153.40;;
8407;SDS011;4241;48.452;9.216;2022-09-27T11:18:19;456.73;;;153.93;;
8407;SDS011;4241;48.452;9.216;2022-09-27T11:20:56;455.87;;;153.50;;
8407;SDS011;4241;48.452;9.216;2022-09-27T11:23:34;449.73;;;147.17;;
8407;SDS011;4241;48.452;9.216;2022-09-27T11:26:16;451.83;;;150.47;;
8407;SDS011;4241;48.452;9.216;2022-09-27T11:28:58;454.80;;;152.20;;
8407;SDS011;4241;48.452;9.216;2022-09-27T11:31:39;451.00;;;149.27;;
8407;SDS011;4241;48.452;9.216;2022-09-27T11:34:18;452.30;;;150.87;;
8407;SDS011;4241;48.452;9.216;2022-09-27T11:37:01;455.87;;;153.80;;
8407;SDS011;4241;48.452;9.216;2022-09-27T11:39:41;454.87;;;152.57;;
8407;SDS011;4241;48.452;9.216;2022-09-27T11:42:23;455.50;;;154.07;;
8407;SDS011;4241;48.452;9.216;2022-09-27T11:45:11;455.07;;;153.87;;
8407;SDS011;4241;48.452;9.216;2022-09-27T11:47:52;458.30;;;157.93;;
8407;SDS011;4241;48.452;9.216;2022-09-27T11:50:36;456.63;;;156.37;;
8407;SDS011;4241;48.452;9.216;2022-09-27T11:53:30;455.40;;;155.17;;
8407;SDS011;4241;48.452;9.216;2022-09-27T11:56:19;456.33;;;157.57;;
8407;SDS011;4241;48.452;9.216;2022-09-27T11:58:58;456.73;;;158.07;;
8407;SDS011;4241;48.452;9.216;2022-09-27T12:01:34;458.03;;;159.47;;
8407;SDS011;4241;48.452;9.216;2022-09-27T12:04:23;459.17;;;161.13;;
8407;SDS011;4241;48.452;9.216;2022-09-27T12:07:05;458.00;;;159.47;;
8407;SDS011;4241;48.452;9.216;2022-09-27T12:09:42;457.43;;;158.67;;
8407;SDS011;4241;48.452;9.216;2022-09-27T12:12:14;458.03;;;159.70;;
8407;SDS011;4241;48.452;9.216;2022-09-27T12:14:46;456.37;;;157.33;;
8407;SDS011;4241;48.452;9.216;2022-09-27T12:17:17;455.70;;;155.80;;
8407;SDS011;4241;48.452;9.216;2022-09-27T12:19:47;454.53;;;154.63;;
8407;SDS011;4241;48.452;9.216;2022-09-27T12:22:18;455.97;;;155.63;;
8407;SDS011;4241;48.452;9.216;2022-09-27T12:24:50;453.67;;;152.47;;
8407;SDS011;4241;48.452;9.216;2022-09-27T12:27:20;452.93;;;151.90;;
8407;SDS011;4241;48.452;9.216;2022-09-27T12:29:55;453.13;;;151.23;;
8407;SDS011;4241;48.452;9.216;2022-09-27T12:32:25;456.83;;;155.80;;
8407;SDS011;4241;48.452;9.216;2022-09-27T12:34:59;450.80;;;149.37;;
8407;SDS011;4241;48.452;9.216;2022-09-27T12:37:30;450.57;;;147.97;;
8407;SDS011;4241;48.452;9.216;2022-09-27T12:40:01;450.83;;;148.73;;
8407;SDS011;4241;48.452;9.216;2022-09-27T12:42:35;457.53;;;154.20;;
8407;SDS011;4241;48.452;9.216;2022-09-27T12:45:05;451.27;;;148.37;;
8407;SDS011;4241;48.452;9.216;2022-09-27T12:47:49;448.87;;;145.23;;
8407;SDS011;4241;48.452;9.216;2022-09-27T12:50:26;445.33;;;142.27;;
8407;SDS011;4241;48.452;9.216;2022-09-27T12:53:01;446.57;;;142.90;;
8407;SDS011;4241;48.452;9.216;2022-09-27T12:55:41;445.33;;;141.53;;
8407;SDS011;4241;48.452;9.216;2022-09-27T12:58:28;445.13;;;141.07;;
8407;SDS011;4241;48.452;9.216;2022-09-27T13:01:08;444.43;;;140.00;;
8407;SDS011;4241;48.452;9.216;2022-09-27T13:03:49;443.43;;;139.23;;
8407;SDS011;4241;48.452;9.216;2022-09-27T13:06:37;445.80;;;141.17;;
8407;SDS011;4241;48.452;9.216;2022-09-27T13:12:16;444.63;;;140.83;;
8407;SDS011;4241;48.452;9.216;2022-09-27T13:14:54;442.83;;;139.10;;
8407;SDS011;4241;48.452;9.216;2022-09-27T13:20:31;443.87;;;139.53;;
8407;SDS011;4241;48.452;9.216;2022-09-27T13:23:04;440.13;;;137.03;;
8407;SDS011;4241;48.452;9.216;2022-09-27T13:25:58;441.10;;;137.57;;
8407;SDS011;4241;48.452;9.216;2022-09-27T13:28:31;440.33;;;136.67;;
8407;SDS011;4241;48.452;9.216;2022-09-27T13:31:02;440.73;;;136.43;;
8407;SDS011;4241;48.452;9.216;2022-09-27T13:33:31;441.57;;;138.37;;
8407;SDS011;4241;48.452;9.216;2022-09-27T13:39:04;441.80;;;139.23;;
8407;SDS011;4241;48.452;9.216;2022-09-27T13:44:59;429.33;;;138.27;;
8407;SDS011;4241;48.452;9.216;2022-09-27T13:47:47;432.57;;;140.50;;
8407;SDS011;4241;48.452;9.216;2022-09-27T13:50:17;433.87;;;140.00;;
8407;SDS011;4241;48.452;9.216;2022-09-27T13:52:54;434.50;;;142.00;;
8407;SDS011;4241;48.452;9.216;2022-09-27T13:55:39;430.30;;;139.33;;
8407;SDS011;4241;48.452;9.216;2022-09-27T13:58:14;427.70;;;138.30;;
8407;SDS011;4241;48.452;9.216;2022-09-27T14:01:10;426.27;;;139.83;;
8407;SDS011;4241;48.452;9.216;2022-09-27T14:03:53;423.63;;;138.97;;
8407;SDS011;4241;48.452;9.216;2022-09-27T14:06:24;423.50;;;139.97;;
8407;SDS011;4241;48.452;9.216;2022-09-27T14:08:55;424.53;;;140.27;;
8407;SDS011;4241;48.452;9.216;2022-09-27T14:11:25;423.03;;;139.97;;
8407;SDS011;4241;48.452;9.216;2022-09-27T14:13:55;432.67;;;149.43;;
8407;SDS011;4241;48.452;9.216;2022-09-27T14:16:23;419.70;;;136.90;;
8407;SDS011;4241;48.452;9.216;2022-09-27T14:18:57;418.80;;;137.50;;
8407;SDS011;4241;48.452;9.216;2022-09-27T14:21:27;420.60;;;137.90;;
8407;SDS011;4241;48.452;9.216;2022-09-27T14:27:01;421.80;;;138.97;;
8407;SDS011;4241;48.452;9.216;2022-09-27T14:29:31;453.17;;;167.63;;
8407;SDS011;4241;48.452;9.216;2022-09-27T14:32:05;420.50;;;137.10;;
8407;SDS011;4241;48.452;9.216;2022-09-27T14:34:36;475.27;;;185.53;;
8407;SDS011;4241;48.452;9.216;2022-09-27T14:37:03;428.07;;;144.80;;
8407;SDS011;4241;48.452;9.216;2022-09-27T14:39:52;421.30;;;141.23;;
8407;SDS011;4241;48.452;9.216;2022-09-27T14:42:20;422.03;;;143.53;;
8407;SDS011;4241;48.452;9.216;2022-09-27T14:44:50;420.63;;;140.53;;
8407;SDS011;4241;48.452;9.216;2022-09-27T14:47:18;415.73;;;137.60;;
8407;SDS011;4241;48.452;9.216;2022-09-27T14:49:49;416.50;;;137.83;;
8407;SDS011;4241;48.452;9.216;2022-09-27T14:52:18;413.73;;;136.20;;
8407;SDS011;4241;48.452;9.216;2022-09-27T14:54:58;416.33;;;139.57;;
8407;SDS011;4241;48.452;9.216;2022-09-27T14:57:26;407.93;;;136.30;;
8407;SDS011;4241;48.452;9.216;2022-09-27T14:59:56;408.40;;;137.33;;
8407;SDS011;4241;48.452;9.216;2022-09-27T15:02:27;408.60;;;139.27;;
8407;SDS011;4241;48.452;9.216;2022-09-27T15:04:58;401.53;;;133.33;;
8407;SDS011;4241;48.452;9.216;2022-09-27T15:07:25;398.60;;;131.87;;
8407;SDS011;4241;48.452;9.216;2022-09-27T15:09:52;401.53;;;136.20;;